createdAt,value
2023-12-18T00:01:15.983Z,48.50
2023-12-18T00:03:42.967Z,48.90
2023-12-18T00:06:09.926Z,48.80
2023-12-18T00:08:36.777Z,48.80
2023-12-18T00:11:03.659Z,48.80
2023-12-18T00:13:30.657Z,48.70
2023-12-18T00:15:59.111Z,48.90
2023-12-18T00:18:27.048Z,48.40
2023-12-18T00:20:53.924Z,50.70
2023-12-18T00:23:20.882Z,50.00
2023-12-18T00:25:47.716Z,49.50
2023-12-18T00:28:14.551Z,49.60
2023-12-18T00:30:41.559Z,49.70
2023-12-18T00:33:09.480Z,49.40
2023-12-18T00:35:36.411Z,49.50
2023-12-18T00:38:03.321Z,49.40
2023-12-18T00:40:30.204Z,49.60
2023-12-18T00:42:57.039Z,49.70
2023-12-18T00:45:25.035Z,49.60
2023-12-18T00:47:52.694Z,49.50
2023-12-18T00:50:19.642Z,49.50
2023-12-18T00:52:46.693Z,49.70
2023-12-18T00:55:13.504Z,49.80
2023-12-18T00:57:40.549Z,49.90
2023-12-18T01:00:08.348Z,49.90
2023-12-18T01:02:35.227Z,49.50
2023-12-18T01:05:02.169Z,49.50
2023-12-18T01:07:31.818Z,50.10
2023-12-18T01:10:01.495Z,49.10
2023-12-18T01:12:28.487Z,49.50
2023-12-18T01:14:55.614Z,49.80
2023-12-18T01:17:32.541Z,49.60
2023-12-18T01:20:04.031Z,49.80
2023-12-18T01:22:30.937Z,50.40
2023-12-18T01:24:58.629Z,49.90
2023-12-18T01:27:25.878Z,49.90
2023-12-18T01:29:52.775Z,50.10
2023-12-18T01:32:19.600Z,49.80
2023-12-18T01:34:46.417Z,49.90
2023-12-18T01:37:14.107Z,49.80
2023-12-18T01:39:40.949Z,49.70
2023-12-18T01:42:07.913Z,50.00
2023-12-18T01:44:34.816Z,49.70
2023-12-18T01:47:02.438Z,50.00
2023-12-18T01:49:29.490Z,50.00
2023-12-18T01:51:56.527Z,50.10
2023-12-18T01:54:23.743Z,49.80
2023-12-18T01:56:53.086Z,50.10
2023-12-18T01:59:22.831Z,50.10
2023-12-18T02:01:50.593Z,49.80
2023-12-18T02:04:18.229Z,49.90
2023-12-18T02:06:47.395Z,50.00
2023-12-18T02:09:14.902Z,49.80
2023-12-18T02:11:45.112Z,49.70
2023-12-18T02:14:12.968Z,49.90
2023-12-18T02:16:39.789Z,50.00
2023-12-18T02:19:21.284Z,50.10
2023-12-18T02:21:48.230Z,50.10
2023-12-18T02:24:15.126Z,50.00
2023-12-18T02:26:42.189Z,49.80
2023-12-18T02:29:09.849Z,49.90
2023-12-18T02:31:37.726Z,50.20
2023-12-18T02:34:05.970Z,50.10
2023-12-18T02:36:33.174Z,49.90
2023-12-18T02:38:59.949Z,50.00
2023-12-18T02:41:27.781Z,50.30
2023-12-18T02:43:54.665Z,50.00
2023-12-18T02:46:21.496Z,50.30
2023-12-18T02:48:48.496Z,49.90
2023-12-18T02:51:15.455Z,50.80
2023-12-18T02:53:42.389Z,50.10
2023-12-18T02:56:09.263Z,50.10
2023-12-18T02:58:36.180Z,50.20
2023-12-18T03:01:03.437Z,50.10
2023-12-18T03:03:30.450Z,50.10
2023-12-18T03:05:58.312Z,50.20
2023-12-18T03:08:25.173Z,50.20
2023-12-18T03:10:53.380Z,50.30
2023-12-18T03:13:20.273Z,50.50
2023-12-18T03:15:47.236Z,50.00
2023-12-18T03:18:14.162Z,50.20
2023-12-18T03:20:41.094Z,50.10
2023-12-18T03:23:07.949Z,50.40
2023-12-18T03:25:34.792Z,50.50
2023-12-18T03:28:01.650Z,50.20
2023-12-18T03:30:28.563Z,50.20
2023-12-18T03:32:56.759Z,50.20
2023-12-18T03:35:23.745Z,50.20
2023-12-18T03:37:50.618Z,50.40
2023-12-18T03:40:18.385Z,50.50
2023-12-18T03:42:45.299Z,50.10
2023-12-18T03:45:12.482Z,50.60
2023-12-18T03:47:39.526Z,50.40
2023-12-18T03:50:08.086Z,50.50
2023-12-18T03:52:34.959Z,50.20
2023-12-18T03:55:02.670Z,50.60
2023-12-18T03:57:29.608Z,50.60
2023-12-18T03:59:58.629Z,50.70
2023-12-18T04:02:26.757Z,51.10
2023-12-18T04:04:54.019Z,51.30
2023-12-18T04:07:22.055Z,52.60
2023-12-18T04:09:50.044Z,52.90
2023-12-18T04:12:17.724Z,52.80
2023-12-18T04:14:44.760Z,54.50
2023-12-18T04:17:11.669Z,57.10
2023-12-18T04:19:38.611Z,59.10
2023-12-18T04:22:05.570Z,61.60
2023-12-18T04:24:32.512Z,61.90
2023-12-18T04:26:59.361Z,61.00
2023-12-18T04:29:27.422Z,60.00
2023-12-18T04:31:54.316Z,59.10
